createdAt,value
2018-11-04T00:00:23.676Z,17.12
2018-11-04T00:02:25.919Z,16.87
2018-11-04T00:04:28.219Z,20.27
2018-11-04T00:06:30.632Z,16.07
2018-11-04T00:08:32.866Z,24.55
2018-11-04T00:10:35.139Z,21.33
2018-11-04T00:12:38.633Z,24.47
2018-11-04T00:14:40.811Z,19.32
2018-11-04T00:16:43.178Z,16.23
2018-11-04T00:18:45.362Z,17.30
2018-11-04T00:20:47.561Z,16.40
2018-11-04T00:22:50.021Z,18.80
2018-11-04T00:24:52.355Z,18.20
2018-11-04T00:26:54.564Z,19.02
2018-11-04T00:28:56.784Z,19.30
2018-11-04T00:30:58.998Z,16.62
2018-11-04T00:33:01.250Z,20.08
2018-11-04T00:35:04.241Z,19.82
2018-11-04T00:37:06.985Z,18.48
2018-11-04T00:39:09.262Z,16.50
2018-11-04T00:41:11.834Z,18.37
2018-11-04T00:43:14.030Z,18.50
2018-11-04T00:45:16.345Z,19.52
2018-11-04T00:47:18.706Z,20.40
2018-11-04T00:49:21.575Z,16.90
2018-11-04T00:51:23.791Z,15.88
2018-11-04T00:53:25.985Z,14.58
2018-11-04T00:55:28.232Z,16.70
2018-11-04T00:57:30.374Z,17.67
2018-11-04T00:59:32.700Z,20.17
2018-11-04T01:01:35.086Z,18.10
2018-11-04T01:03:37.233Z,15.15
2018-11-04T01:05:39.455Z,18.37
2018-11-04T01:07:41.970Z,15.03
2018-11-04T01:09:44.164Z,14.05
2018-11-04T01:11:46.401Z,18.42
2018-11-04T01:13:48.850Z,16.48
2018-11-04T01:15:51.223Z,20.77
2018-11-04T01:17:53.426Z,17.32
2018-11-04T01:19:55.729Z,16.80
2018-11-04T01:21:58.112Z,19.27
2018-11-04T01:24:00.762Z,15.75
2018-11-04T01:26:03.052Z,17.17
2018-11-04T01:28:05.335Z,17.52
2018-11-04T01:30:08.571Z,23.32
2018-11-04T01:32:10.747Z,21.40
2018-11-04T01:34:13.126Z,16.50
2018-11-04T01:36:15.352Z,16.42
2018-11-04T01:38:17.558Z,24.18
2018-11-04T01:40:19.847Z,19.75
2018-11-04T01:42:22.466Z,21.05
2018-11-04T01:44:24.722Z,19.82
2018-11-04T01:46:26.939Z,17.92
2018-11-04T01:48:29.783Z,17.02
2018-11-04T01:50:31.992Z,18.65
2018-11-04T01:52:34.166Z,15.28
2018-11-04T01:54:36.680Z,16.20
2018-11-04T01:56:38.923Z,16.93
2018-11-04T01:58:41.134Z,17.62
2018-11-04T02:00:43.493Z,17.77
2018-11-04T02:02:46.643Z,15.30
2018-11-04T02:04:48.937Z,21.30
2018-11-04T02:06:51.674Z,17.52
2018-11-04T02:08:53.898Z,19.00
2018-11-04T02:10:56.070Z,21.93
2018-11-04T02:12:58.449Z,20.60
2018-11-04T02:15:00.663Z,17.27
2018-11-04T02:17:02.874Z,19.92
2018-11-04T02:19:05.184Z,22.65
2018-11-04T02:21:07.430Z,21.57
2018-11-04T02:23:09.614Z,17.10
2018-11-04T02:25:12.828Z,20.52
2018-11-04T02:27:15.034Z,20.27
2018-11-04T02:29:17.406Z,21.48
2018-11-04T02:31:19.717Z,19.70
2018-11-04T02:33:21.900Z,17.77
2018-11-04T02:35:24.055Z,18.12
2018-11-04T02:37:26.248Z,18.80
2018-11-04T02:39:28.460Z,18.42
2018-11-04T02:41:30.732Z,19.05
2018-11-04T02:43:33.000Z,15.35
2018-11-04T02:45:35.315Z,15.08
2018-11-04T02:47:37.682Z,18.60
2018-11-04T02:49:39.878Z,15.72
2018-11-04T02:51:42.119Z,17.52
2018-11-04T02:53:44.315Z,17.82
2018-11-04T02:55:46.487Z,17.77
2018-11-04T02:57:48.902Z,20.62
2018-11-04T02:59:51.185Z,18.35
2018-11-04T03:01:53.393Z,21.65
2018-11-04T03:03:55.686Z,14.35
2018-11-04T03:05:57.921Z,17.25
2018-11-04T03:08:00.170Z,16.45
2018-11-04T03:10:02.464Z,23.15
2018-11-04T03:12:04.710Z,22.17
2018-11-04T03:14:07.150Z,18.98
2018-11-04T03:16:15.407Z,15.65
2018-11-04T03:18:17.640Z,15.95
2018-11-04T03:20:19.900Z,24.02
2018-11-04T03:22:22.132Z,18.40
2018-11-04T03:24:24.367Z,19.55
2018-11-04T03:26:27.139Z,21.95
2018-11-04T03:28:29.618Z,17.10
2018-11-04T03:30:31.793Z,18.15
2018-11-04T03:32:34.596Z,19.52
2018-11-04T03:34:36.902Z,19.05
2018-11-04T03:36:39.070Z,18.65
2018-11-04T03:38:41.578Z,19.05
2018-11-04T03:40:43.795Z,20.70
2018-11-04T03:42:45.973Z,20.57
2018-11-04T03:44:48.468Z,22.80
2018-11-04T03:46:50.680Z,19.40
2018-11-04T03:48:52.875Z,15.50
2018-11-04T03:50:55.304Z,24.27
2018-11-04T03:53:03.095Z,21.50
2018-11-04T03:55:05.546Z,18.12
2018-11-04T03:57:07.791Z,16.93
2018-11-04T03:59:10.020Z,18.80
2018-11-04T04:01:12.243Z,16.20
2018-11-04T04:03:14.514Z,17.48
2018-11-04T04:05:16.710Z,19.55
2018-11-04T04:07:18.887Z,19.75
2018-11-04T04:09:21.729Z,19.57
2018-11-04T04:11:23.961Z,20.45
2018-11-04T04:13:26.203Z,18.32
2018-11-04T04:15:28.704Z,17.12
2018-11-04T04:17:30.972Z,18.02
2018-11-04T04:19:33.177Z,18.23
2018-11-04T04:21:36.195Z,19.25
2018-11-04T04:23:39.582Z,22.60
2018-11-04T04:25:41.792Z,16.62
2018-11-04T04:27:44.018Z,20.15
2018-11-04T04:29:46.355Z,18.98
2018-11-04T04:31:48.535Z,32.48
2018-11-04T04:33:50.885Z,18.12
2018-11-04T04:35:53.127Z,21.33
2018-11-04T04:37:55.361Z,18.02
2018-11-04T04:39:57.792Z,19.25
2018-11-04T04:42:00.007Z,20.12
2018-11-04T04:44:02.217Z,22.80
2018-11-04T04:46:04.710Z,17.40
2018-11-04T04:48:06.912Z,18.60
2018-11-04T04:50:09.186Z,20.12
2018-11-04T04:52:11.488Z,17.82
2018-11-04T04:54:13.665Z,21.80
2018-11-04T04:56:16.046Z,20.02
2018-11-04T04:58:18.304Z,19.37
2018-11-04T05:00:20.501Z,19.23
2018-11-04T05:02:22.749Z,15.80
2018-11-04T05:04:25.331Z,18.23
2018-11-04T05:06:27.650Z,21.48
2018-11-04T05:08:29.855Z,19.90
2018-11-04T05:10:32.083Z,18.90
2018-11-04T05:12:34.628Z,18.98
2018-11-04T05:14:36.842Z,18.95
2018-11-04T05:16:39.061Z,19.07
2018-11-04T05:18:41.414Z,20.75
2018-11-04T05:20:43.585Z,20.90
2018-11-04T05:22:45.947Z,24.67
2018-11-04T05:24:48.101Z,17.65
2018-11-04T05:26:50.375Z,24.98
2018-11-04T05:28:52.708Z,21.17
2018-11-04T05:30:55.033Z,21.45
2018-11-04T05:32:57.359Z,22.07
2018-11-04T05:35:00.022Z,18.95
2018-11-04T05:37:02.210Z,23.98
2018-11-04T05:39:05.826Z,21.70
2018-11-04T05:41:08.062Z,20.35
2018-11-04T05:43:10.263Z,18.20
2018-11-04T05:45:12.726Z,22.00
2018-11-04T05:47:15.019Z,21.48
2018-11-04T05:49:17.230Z,21.80
2018-11-04T05:51:19.456Z,19.42
2018-11-04T05:53:21.707Z,22.90
2018-11-04T05:55:23.963Z,20.05
2018-11-04T05:57:26.732Z,23.27
2018-11-04T05:59:28.970Z,25.70
2018-11-04T06:01:31.737Z,23.55
2018-11-04T06:03:33.940Z,21.65
2018-11-04T06:05:36.199Z,22.25
2018-11-04T06:07:38.543Z,23.25
2018-11-04T06:09:41.087Z,22.87
2018-11-04T06:11:43.257Z,18.70
2018-11-04T06:13:45.451Z,22.42
2018-11-04T06:15:47.818Z,25.70
2018-11-04T06:17:50.114Z,23.42
2018-11-04T06:19:52.375Z,24.72
2018-11-04T06:21:54.868Z,22.67
2018-11-04T06:23:57.228Z,21.37
2018-11-04T06:25:59.457Z,23.90
2018-11-04T06:28:01.864Z,23.22
2018-11-04T06:30:05.265Z,25.70
2018-11-04T06:32:07.666Z,23.12
2018-11-04T06:34:09.933Z,22.52
2018-11-04T06:36:12.147Z,19.32
2018-11-04T06:38:14.382Z,25.25
2018-11-04T06:40:16.647Z,23.80
2018-11-04T06:42:19.186Z,21.68
2018-11-04T06:44:21.379Z,24.32
2018-11-04T06:46:23.606Z,27.75
2018-11-04T06:48:26.207Z,21.20
2018-11-04T06:50:28.510Z,25.72
2018-11-04T06:52:30.748Z,22.77
2018-11-04T06:54:33.167Z,23.52
2018-11-04T06:56:35.970Z,24.37
2018-11-04T06:58:38.194Z,21.77
2018-11-04T07:00:40.451Z,25.23
2018-11-04T07:02:42.641Z,27.30
2018-11-04T07:04:45.061Z,24.15
2018-11-04T07:06:47.913Z,28.00
2018-11-04T07:08:50.191Z,21.90
2018-11-04T07:10:52.346Z,23.22
2018-11-04T07:12:54.866Z,20.15
2018-11-04T07:14:57.214Z,28.12
2018-11-04T07:16:59.394Z,25.70
2018-11-04T07:19:01.794Z,25.85
2018-11-04T07:21:04.545Z,26.17
2018-11-04T07:23:06.787Z,23.20
2018-11-04T07:25:09.034Z,28.60
2018-11-04T07:27:11.280Z,27.17
2018-11-04T07:29:13.524Z,20.40
2018-11-04T07:31:16.103Z,26.37
2018-11-04T07:33:18.438Z,23.07
2018-11-04T07:35:21.315Z,23.42
2018-11-04T07:37:23.730Z,23.92
2018-11-04T07:39:25.959Z,26.90
2018-11-04T07:41:28.131Z,22.17
2018-11-04T07:43:30.571Z,24.52
2018-11-04T07:45:32.823Z,27.25
2018-11-04T07:47:35.014Z,24.92
2018-11-04T07:49:37.406Z,21.07
2018-11-04T07:51:40.762Z,23.18
2018-11-04T07:53:43.363Z,25.50
2018-11-04T07:55:45.830Z,28.55
2018-11-04T07:57:48.083Z,24.30
2018-11-04T07:59:50.303Z,31.97
2018-11-04T08:01:52.475Z,31.37
2018-11-04T08:03:55.042Z,33.80
2018-11-04T08:05:58.074Z,35.23
2018-11-04T08:08:00.411Z,36.30
2018-11-04T08:10:02.845Z,37.67
2018-11-04T08:12:05.121Z,40.25
2018-11-04T08:14:07.354Z,39.20
2018-11-04T08:16:09.718Z,37.95
2018-11-04T08:18:11.942Z,44.83
2018-11-04T08:20:14.499Z,35.85
2018-11-04T08:22:16.710Z,47.10
2018-11-04T08:24:19.019Z,46.00
2018-11-04T08:26:21.307Z,50.95
2018-11-04T08:28:23.502Z,50.05
2018-11-04T08:30:25.670Z,46.33
2018-11-04T08:32:27.876Z,55.85
2018-11-04T08:34:30.054Z,46.58
2018-11-04T08:36:32.252Z,53.52
2018-11-04T08:38:34.467Z,51.80
2018-11-04T08:40:36.642Z,49.83
2018-11-04T08:42:38.827Z,53.17
2018-11-04T08:44:41.063Z,60.75
2018-11-04T08:46:43.267Z,54.45
2018-11-04T08:48:45.462Z,60.23
2018-11-04T08:50:48.101Z,52.67
2018-11-04T08:52:52.570Z,48.90
2018-11-04T08:54:54.796Z,50.52
2018-11-04T08:56:57.234Z,46.65
2018-11-04T08:58:59.459Z,63.48
2018-11-04T09:01:01.614Z,53.63
2018-11-04T09:03:04.527Z,48.80
2018-11-04T09:05:13.367Z,43.48
2018-11-04T09:07:17.489Z,49.40
2018-11-04T09:09:19.692Z,47.75
2018-11-04T09:11:21.886Z,50.88
2018-11-04T09:13:24.070Z,48.87
2018-11-04T09:15:26.235Z,51.50
2018-11-04T09:17:28.398Z,53.52
2018-11-04T09:19:30.564Z,44.42
2018-11-04T09:21:32.790Z,51.37
2018-11-04T09:23:35.345Z,55.00
2018-11-04T09:25:37.470Z,56.10
2018-11-04T09:27:39.651Z,59.38
2018-11-04T09:29:41.871Z,45.80
2018-11-04T09:31:44.070Z,44.50
2018-11-04T09:33:46.264Z,51.70
2018-11-04T09:35:48.762Z,55.33
2018-11-04T09:37:50.770Z,52.27
2018-11-04T09:39:52.960Z,56.92
2018-11-04T09:41:55.143Z,49.88
2018-11-04T09:43:57.355Z,56.20
2018-11-04T09:45:59.715Z,62.13
2018-11-04T09:48:02.553Z,62.23
2018-11-04T09:50:05.761Z,57.15
2018-11-04T09:52:07.941Z,53.80
2018-11-04T09:54:10.107Z,52.88
2018-11-04T09:56:12.278Z,55.70
2018-11-04T09:58:14.592Z,61.50
2018-11-04T10:00:16.754Z,59.60
2018-11-04T10:02:19.035Z,55.87
2018-11-04T10:04:21.229Z,52.73
2018-11-04T10:06:24.675Z,52.38
2018-11-04T10:08:26.990Z,61.45
2018-11-04T10:10:29.257Z,64.92
2018-11-04T10:12:31.549Z,54.88
2018-11-04T10:14:33.820Z,49.42
2018-11-04T10:16:36.474Z,58.58
2018-11-04T10:18:39.180Z,58.15
2018-11-04T10:20:41.756Z,50.03
2018-11-04T10:22:43.590Z,59.35
2018-11-04T10:24:45.849Z,59.67
2018-11-04T10:26:48.262Z,52.10
2018-11-04T10:28:50.531Z,65.45
2018-11-04T10:30:52.824Z,51.45
2018-11-04T10:32:55.077Z,54.10
2018-11-04T10:34:57.327Z,51.40
2018-11-04T10:38:02.774Z,53.35
2018-11-04T10:40:05.362Z,55.67
2018-11-04T10:42:07.652Z,54.00
2018-11-04T10:44:09.924Z,59.38
2018-11-04T10:46:12.149Z,47.27
2018-11-04T10:48:14.443Z,54.67
2018-11-04T10:50:16.825Z,49.30
2018-11-04T10:52:19.127Z,54.70
2018-11-04T10:54:21.395Z,47.53
2018-11-04T10:56:23.671Z,55.30
2018-11-04T10:58:25.899Z,47.47
2018-11-04T11:00:33.879Z,49.27
2018-11-04T11:02:36.144Z,58.23
2018-11-04T11:04:38.491Z,49.93
2018-11-04T11:17:17.638Z,53.47
2018-11-04T11:22:06.711Z,42.63
2018-11-04T11:24:09.352Z,48.90
2018-11-04T11:26:11.579Z,39.43
2018-11-04T11:28:13.800Z,48.77
2018-11-04T11:30:47.061Z,49.23
2018-11-04T11:35:36.631Z,43.77
2018-11-04T11:37:46.892Z,52.03
2018-11-04T11:40:05.720Z,45.30
2018-11-04T11:42:22.472Z,45.80
2018-11-04T11:50:46.287Z,49.60
2018-11-04T11:53:49.294Z,44.27
2018-11-04T11:56:01.243Z,42.90
2018-11-04T12:00:51.230Z,44.30
2018-11-04T12:05:25.904Z,42.00
2018-11-04T12:07:28.220Z,42.83
2018-11-04T12:09:30.642Z,42.27
2018-11-04T12:11:33.083Z,48.47
2018-11-04T12:13:36.645Z,49.27
2018-11-04T12:15:38.986Z,38.70
2018-11-04T12:17:41.540Z,42.70
2018-11-04T13:04:24.474Z,45.77
2018-11-04T13:06:28.656Z,45.80
2018-11-04T13:08:30.906Z,44.80
2018-11-04T13:10:33.077Z,44.83
2018-11-04T13:12:35.441Z,43.43
2018-11-04T13:14:37.837Z,53.77
2018-11-04T13:16:39.982Z,48.43
2018-11-04T13:18:42.144Z,42.47
2018-11-04T13:20:44.324Z,41.83
2018-11-04T13:22:46.474Z,46.10
2018-11-04T13:24:49.205Z,48.17
2018-11-04T13:26:51.440Z,49.40
2018-11-04T13:28:53.585Z,47.60
2018-11-04T13:30:55.746Z,52.50
2018-11-04T13:32:57.891Z,49.23
2018-11-04T13:35:00.058Z,48.90
2018-11-04T13:37:02.246Z,42.30
2018-11-04T13:39:05.902Z,44.93
2018-11-04T13:41:08.079Z,47.30
2018-11-04T13:43:10.266Z,48.27
2018-11-04T13:45:12.421Z,44.67
2018-11-04T13:47:15.927Z,45.97
2018-11-04T13:49:18.133Z,47.33
2018-11-04T13:51:20.293Z,48.80
2018-11-04T13:53:22.461Z,45.77
2018-11-04T13:55:24.599Z,45.63
2018-11-04T13:57:26.774Z,50.77
2018-11-04T13:59:28.924Z,41.77
2018-11-04T14:01:32.132Z,47.70
2018-11-04T14:03:35.237Z,42.50
2018-11-04T14:05:37.418Z,49.90
2018-11-04T14:07:40.238Z,50.43
2018-11-04T14:09:42.550Z,46.57
2018-11-04T14:11:44.696Z,46.17
2018-11-04T14:13:46.839Z,44.60
2018-11-04T14:15:49.038Z,46.03
2018-11-04T14:17:51.201Z,41.73
2018-11-04T14:19:53.345Z,47.27
2018-11-04T14:21:55.913Z,43.83
2018-11-04T14:23:58.220Z,44.33
2018-11-04T14:26:00.341Z,48.17
2018-11-04T14:28:03.058Z,40.03
2018-11-04T14:30:06.805Z,47.83
2018-11-04T14:32:09.063Z,52.60
2018-11-04T14:34:11.330Z,54.23
2018-11-04T14:36:13.547Z,44.30
2018-11-04T14:38:15.750Z,46.40
2018-11-04T14:40:17.981Z,47.47
2018-11-04T14:42:20.802Z,42.87
2018-11-04T14:44:23.007Z,45.33
2018-11-04T14:46:25.242Z,41.97
2018-11-04T14:48:27.495Z,51.17
2018-11-04T14:50:29.705Z,49.30
2018-11-04T14:52:31.935Z,44.70
2018-11-04T14:54:34.164Z,45.53
2018-11-04T14:56:36.426Z,46.23
2018-11-04T14:58:38.648Z,48.80
2018-11-04T15:00:40.847Z,44.00
2018-11-04T15:02:43.088Z,50.03
2018-11-04T15:04:45.326Z,43.00
2018-11-04T15:06:47.549Z,46.67
2018-11-04T15:08:50.031Z,50.60
2018-11-04T15:10:52.309Z,46.00
2018-11-04T15:12:54.456Z,48.67
2018-11-04T15:14:56.722Z,49.60
2018-11-04T15:16:58.988Z,55.10
2018-11-04T15:19:01.242Z,53.03
2018-11-04T15:21:03.485Z,54.40
2018-11-04T15:23:05.755Z,51.03
2018-11-04T15:25:07.984Z,44.90
2018-11-04T15:27:10.239Z,47.10
2018-11-04T15:29:12.451Z,48.70
2018-11-04T15:31:14.671Z,55.00
2018-11-04T15:33:16.903Z,50.23
2018-11-04T15:35:19.166Z,52.57
2018-11-04T15:37:21.394Z,55.83
2018-11-04T15:39:23.620Z,54.10
2018-11-04T15:41:25.851Z,56.03
2018-11-04T15:43:28.281Z,46.43
2018-11-04T15:45:30.495Z,48.60
2018-11-04T15:47:32.727Z,45.17
2018-11-04T15:49:35.004Z,52.20
2018-11-04T15:51:37.244Z,50.70
2018-11-04T15:53:39.562Z,49.53
2018-11-04T15:55:41.812Z,53.70
2018-11-04T15:57:44.079Z,46.07
2018-11-04T15:59:46.319Z,50.77
2018-11-04T16:01:48.590Z,43.17
2018-11-04T16:03:50.818Z,46.90
2018-11-04T16:05:53.155Z,47.87
2018-11-04T16:07:55.405Z,49.13
2018-11-04T16:10:08.542Z,50.37
2018-11-04T16:12:24.675Z,46.87
2018-11-04T16:14:27.114Z,51.17
2018-11-04T16:16:29.435Z,59.43
2018-11-04T16:18:31.903Z,49.60
2018-11-04T16:20:34.124Z,50.30
2018-11-04T16:22:36.884Z,49.10
2018-11-04T16:24:39.134Z,46.33
2018-11-04T16:26:41.366Z,46.73
2018-11-04T16:28:43.666Z,46.67
2018-11-04T16:30:46.143Z,47.97
2018-11-04T16:32:48.406Z,44.80
2018-11-04T16:34:50.758Z,52.50
2018-11-04T16:36:53.045Z,51.73
2018-11-04T16:38:55.399Z,43.47
2018-11-04T16:40:57.690Z,49.50
2018-11-04T16:43:00.054Z,52.53
2018-11-04T16:45:07.164Z,53.17
2018-11-04T16:47:09.403Z,48.17
2018-11-04T16:49:12.063Z,52.67
2018-11-04T16:51:14.496Z,47.47
2018-11-04T16:53:16.780Z,54.83
2018-11-04T16:55:19.081Z,49.40
2018-11-04T16:57:21.478Z,50.37
2018-11-04T16:59:24.649Z,53.53
2018-11-04T17:01:26.901Z,55.90
2018-11-04T17:03:29.187Z,52.70
2018-11-04T17:05:31.771Z,56.57
2018-11-04T17:07:33.872Z,52.10
2018-11-04T17:09:36.209Z,54.90
2018-11-04T17:11:47.855Z,56.63
2018-11-04T17:14:02.143Z,59.77
2018-11-04T17:16:14.113Z,52.63
2018-11-04T17:18:20.454Z,54.63
2018-11-04T17:20:25.440Z,61.30
2018-11-04T17:22:34.927Z,57.30
2018-11-04T17:24:38.526Z,54.63
2018-11-04T17:26:43.173Z,62.63
2018-11-04T17:28:47.182Z,62.87
2018-11-04T17:30:52.867Z,61.57
2018-11-04T17:33:05.616Z,57.20
2018-11-04T17:35:21.800Z,63.50
2018-11-04T17:37:24.193Z,62.47
2018-11-04T17:39:28.022Z,62.37
2018-11-04T17:41:33.433Z,63.80
2018-11-04T17:43:43.334Z,70.73
2018-11-04T17:48:28.496Z,71.03
2018-11-04T17:50:30.756Z,67.00
2018-11-04T17:52:52.015Z,75.40
2018-11-04T17:54:54.524Z,91.97
2018-11-04T17:56:56.946Z,71.00
2018-11-04T17:58:59.255Z,66.73
2018-11-04T18:01:01.621Z,73.63
2018-11-04T18:03:03.958Z,72.53
2018-11-04T18:05:06.635Z,70.23
2018-11-04T18:07:08.936Z,80.13
2018-11-04T18:09:11.277Z,75.17
2018-11-04T18:11:13.635Z,82.70
2018-11-04T18:15:43.991Z,77.40
2018-11-04T18:17:46.293Z,80.63
2018-11-04T18:19:48.644Z,81.93
2018-11-04T18:21:53.007Z,79.43
2018-11-04T18:23:55.334Z,80.50
2018-11-04T18:25:58.282Z,77.73
2018-11-04T18:28:00.941Z,72.90
2018-11-04T18:30:03.385Z,79.70
2018-11-04T18:32:06.175Z,80.00
2018-11-04T18:34:08.780Z,79.17
2018-11-04T18:36:11.154Z,81.50
2018-11-04T18:38:13.412Z,81.20
2018-11-04T18:40:19.116Z,77.60
2018-11-04T18:42:21.623Z,90.93
2018-11-04T18:44:26.084Z,86.03
2018-11-04T18:46:28.295Z,74.60
2018-11-04T18:48:30.926Z,91.93
2018-11-04T18:50:33.478Z,85.47
2018-11-04T18:52:41.212Z,87.47
2018-11-04T18:54:43.674Z,75.73
2018-11-04T18:56:52.905Z,88.57
2018-11-04T18:58:56.479Z,90.87
2018-11-04T19:00:59.026Z,84.60
2018-11-04T19:03:01.447Z,81.97
2018-11-04T19:05:04.555Z,78.37
2018-11-04T19:07:07.053Z,89.43
2018-11-04T19:09:09.903Z,87.53
2018-11-04T19:11:12.215Z,89.40
2018-11-04T19:13:14.464Z,79.13
2018-11-04T19:15:16.756Z,94.07
2018-11-04T19:17:19.130Z,79.53
2018-11-04T19:19:21.354Z,87.33
2018-11-04T19:21:23.686Z,75.83
2018-11-04T19:23:25.999Z,89.90
2018-11-04T19:25:28.334Z,88.90
2018-11-04T19:27:30.677Z,85.60
2018-11-04T19:29:33.042Z,85.83
2018-11-04T19:31:35.320Z,89.67
2018-11-04T19:33:37.636Z,98.10
2018-11-04T19:35:39.966Z,91.67
2018-11-04T19:58:31.957Z,91.73
2018-11-04T20:00:34.276Z,95.17
2018-11-04T20:02:42.314Z,91.90
2018-11-04T20:04:44.780Z,92.10
2018-11-04T20:07:06.200Z,90.97
2018-11-04T20:09:13.924Z,76.90
2018-11-04T20:11:17.568Z,88.87
2018-11-04T20:13:25.849Z,118.17
2018-11-04T20:15:37.960Z,85.83
2018-11-04T20:17:40.678Z,105.30
2018-11-04T20:19:48.821Z,89.70
2018-11-04T20:21:53.616Z,106.23
2018-11-04T20:23:56.018Z,94.77
2018-11-04T20:26:01.066Z,98.80
2018-11-04T20:32:01.190Z,91.20
2018-11-04T20:34:05.056Z,88.33
2018-11-04T20:36:07.204Z,99.47
2018-11-04T20:38:09.597Z,96.53
2018-11-04T20:40:20.502Z,104.00
2018-11-04T20:42:27.773Z,87.27
2018-11-04T20:44:30.498Z,98.23
2018-11-04T20:46:32.723Z,98.10
2018-11-04T20:48:40.543Z,98.37
2018-11-04T20:55:56.764Z,95.97
2018-11-04T20:57:59.469Z,100.17
2018-11-04T21:00:02.174Z,92.10
2018-11-04T21:02:08.045Z,101.83
2018-11-04T21:04:11.425Z,98.83
2018-11-04T21:06:13.807Z,85.30
2018-11-04T21:08:16.074Z,96.50
2018-11-04T21:10:18.363Z,92.70
2018-11-04T21:12:20.655Z,101.90
2018-11-04T21:14:24.154Z,91.40
2018-11-04T21:16:26.786Z,90.17
2018-11-04T21:18:29.002Z,86.57
2018-11-04T21:20:31.199Z,93.27
2018-11-04T21:22:33.583Z,95.67
2018-11-04T21:24:36.032Z,100.83
2018-11-04T21:26:38.263Z,87.40
2018-11-04T21:28:40.560Z,93.17
2018-11-04T21:30:42.736Z,95.67
2018-11-04T21:32:45.428Z,94.77
2018-11-04T21:34:47.658Z,96.53
2018-11-04T21:36:49.882Z,99.80
2018-11-04T21:38:52.148Z,98.07
2018-11-04T21:40:54.482Z,109.47
2018-11-04T21:42:56.789Z,98.50
2018-11-04T21:44:59.044Z,103.23
2018-11-04T21:47:01.335Z,103.30
2018-11-04T21:49:04.178Z,111.27
2018-11-04T21:51:06.522Z,115.43
2018-11-04T21:53:08.904Z,106.87
2018-11-04T21:55:12.191Z,119.40
2018-11-04T21:57:14.358Z,114.93
2018-11-04T21:59:16.589Z,126.50
2018-11-04T22:01:18.887Z,109.27
2018-11-04T22:03:21.647Z,119.53
2018-11-04T22:05:24.043Z,124.70
2018-11-04T22:07:26.332Z,116.50
2018-11-04T22:09:28.560Z,120.03
2018-11-04T22:11:30.779Z,108.83
2018-11-04T22:13:33.092Z,131.40
2018-11-04T22:15:35.274Z,126.47
2018-11-04T22:17:38.321Z,138.27
2018-11-04T22:19:40.563Z,122.77
2018-11-04T22:21:42.809Z,124.27
2018-11-04T22:23:45.159Z,140.13
2018-11-04T22:25:47.422Z,121.17
2018-11-04T22:27:49.663Z,128.10
2018-11-04T22:29:52.186Z,130.17
2018-11-04T22:31:55.004Z,136.70
2018-11-04T22:33:57.327Z,123.70
2018-11-04T22:35:59.539Z,138.00
2018-11-04T22:38:01.898Z,121.03
2018-11-04T22:40:04.844Z,121.70
2018-11-04T22:42:07.136Z,140.13
2018-11-04T22:44:09.409Z,119.30
2018-11-04T22:46:11.748Z,125.27
2018-11-04T22:48:14.023Z,123.40
2018-11-04T22:50:16.404Z,128.83
2018-11-04T22:52:18.683Z,127.10
2018-11-04T22:54:20.933Z,127.63
2018-11-04T22:56:23.357Z,127.83
2018-11-04T22:58:25.520Z,124.00
2018-11-04T23:00:33.641Z,112.50
2018-11-04T23:02:43.257Z,124.47
2018-11-04T23:05:52.838Z,114.93
2018-11-04T23:07:55.395Z,123.23
2018-11-04T23:09:57.663Z,123.33
2018-11-04T23:11:59.872Z,109.90
2018-11-04T23:14:02.115Z,122.50
2018-11-04T23:16:04.368Z,110.03
2018-11-04T23:18:06.670Z,121.53
2018-11-04T23:20:08.929Z,122.70
2018-11-04T23:22:11.202Z,109.07
2018-11-04T23:24:13.446Z,111.47
2018-11-04T23:26:15.667Z,107.97
2018-11-04T23:28:17.929Z,113.27
2018-11-04T23:30:20.159Z,107.67
2018-11-04T23:32:22.440Z,103.67
2018-11-04T23:34:24.741Z,107.07
2018-11-04T23:36:27.013Z,109.27
2018-11-04T23:38:29.254Z,107.07
2018-11-04T23:40:31.502Z,112.07
2018-11-04T23:42:33.828Z,99.27
2018-11-04T23:44:36.090Z,110.57
2018-11-04T23:46:38.319Z,104.50
2018-11-04T23:48:40.707Z,108.73
2018-11-04T23:50:43.061Z,113.23
2018-11-04T23:52:45.615Z,108.63
2018-11-04T23:54:48.133Z,103.03
2018-11-04T23:56:50.427Z,106.33
2018-11-04T23:58:52.674Z,107.53
